createdAt,value
2022-09-10T00:02:46.108Z,12.539562
2022-09-10T00:07:47.968Z,12.280506
2022-09-10T00:12:49.839Z,12.248278
2022-09-10T00:17:51.917Z,12.437614
2022-09-10T00:22:53.694Z,12.6371
2022-09-10T00:27:55.508Z,12.141648
2022-09-10T00:32:57.906Z,12.608576
2022-09-10T00:37:59.624Z,12.34184
2022-09-10T00:43:01.391Z,12.659164
2022-09-10T00:48:03.602Z,12.798522
2022-09-10T00:53:05.495Z,13.029436
2022-09-10T00:58:07.044Z,13.311452
2022-09-10T01:03:09.163Z,13.143474
2022-09-10T01:08:10.937Z,12.09558
2022-09-10T01:13:12.554Z,12.033974
2022-09-10T01:18:14.709Z,12.31846
2022-09-10T01:23:17.958Z,11.21287
2022-09-10T01:28:20.290Z,11.604486
2022-09-10T01:33:22.431Z,11.867084
2022-09-10T01:38:24.314Z,11.753656
2022-09-10T01:43:26.197Z,12.076706
2022-09-10T01:48:27.918Z,11.492998
2022-09-10T01:53:29.899Z,11.169948
2022-09-10T01:58:31.310Z,10.980016
2022-09-10T02:03:33.455Z,10.667998
2022-09-10T02:08:35.152Z,10.643126
2022-09-10T02:13:36.899Z,11.296282
2022-09-10T02:18:39.228Z,11.284802
2022-09-10T02:23:41.146Z,10.788916
2022-09-10T02:28:42.786Z,10.984536
2022-09-10T02:33:44.614Z,10.596786
2022-09-10T02:38:46.532Z,11.084882
2022-09-10T02:43:48.322Z,10.512654
2022-09-10T02:48:50.688Z,10.47911
2022-09-10T02:53:52.477Z,10.849058
2022-09-10T02:58:54.372Z,10.58133
2022-09-10T03:03:56.382Z,10.064114
2022-09-10T03:08:58.197Z,10.374626
2022-09-10T03:14:00.069Z,10.217084
2022-09-10T03:19:02.861Z,10.63546
2022-09-10T03:24:05.299Z,10.491024
2022-09-10T03:29:07.273Z,10.501174
2022-09-10T03:34:09.187Z,10.944098
2022-09-10T03:39:10.826Z,11.029884
2022-09-10T03:44:12.623Z,11.169338
2022-09-10T03:49:15.029Z,10.717866
2022-09-10T03:54:16.891Z,10.968822
2022-09-10T03:59:18.794Z,10.953366
2022-09-10T04:04:20.894Z,10.70651
2022-09-10T04:09:22.555Z,11.680504
2022-09-10T04:14:24.541Z,11.457094
2022-09-10T04:19:26.958Z,11.059018
2022-09-10T04:24:28.637Z,11.235096
2022-09-10T04:29:30.143Z,10.919998
2022-09-10T04:34:32.123Z,10.906034
2022-09-10T04:39:33.930Z,11.5677
2022-09-10T04:44:35.503Z,11.515348
2022-09-10T04:49:37.491Z,11.81191
2022-09-10T04:54:39.091Z,11.856934
2022-09-10T04:59:40.648Z,11.742624
2022-09-10T05:04:42.756Z,9.909314
2022-09-10T05:09:44.496Z,10.788592
2022-09-10T05:14:46.050Z,10.673238
2022-09-10T05:19:48.544Z,10.901124
2022-09-10T05:24:50.526Z,11.598856
2022-09-10T05:29:52.010Z,12.321202
2022-09-10T05:34:53.994Z,13.202448
2022-09-10T05:39:55.860Z,13.299538
2022-09-10T05:44:57.872Z,14.595918
2022-09-10T05:50:00.133Z,15.006098
2022-09-10T05:55:02.119Z,16.048904
2022-09-10T06:00:04.012Z,16.289356
2022-09-10T06:05:06.239Z,16.758252
2022-09-10T06:10:08.024Z,17.472798
2022-09-10T06:15:09.864Z,18.760414
2022-09-10T06:20:12.137Z,19.16514
2022-09-10T06:25:14.124Z,19.743516
2022-09-10T06:30:16.214Z,19.989166
2022-09-10T06:35:18.252Z,19.91186
2022-09-10T06:40:20.267Z,20.790124
2022-09-10T06:45:21.792Z,20.513006
2022-09-10T06:50:23.721Z,20.480534
2022-09-10T06:55:25.369Z,21.445752
2022-09-10T07:00:27.337Z,21.6863
2022-09-10T07:05:28.848Z,22.668304
2022-09-10T07:10:30.255Z,23.074564
2022-09-10T07:15:32.151Z,23.988232
2022-09-10T07:20:35.272Z,23.270102
2022-09-10T07:25:36.699Z,23.77926
2022-09-10T07:30:38.641Z,23.989996
2022-09-10T07:35:40.426Z,24.271158
2022-09-10T07:40:42.046Z,24.852222
2022-09-10T07:45:43.674Z,25.818622
2022-09-10T07:50:45.841Z,25.707392
2022-09-10T07:55:47.914Z,25.886796
2022-09-10T08:00:49.927Z,26.90924
2022-09-10T08:05:51.951Z,26.891816
2022-09-10T08:10:53.716Z,27.249796
2022-09-10T08:15:55.694Z,26.982338
2022-09-10T08:20:58.096Z,27.67466
2022-09-10T08:25:59.647Z,27.040362
2022-09-10T08:31:01.185Z,27.655202
2022-09-10T08:36:03.285Z,27.912076
2022-09-10T08:41:04.739Z,28.02378
2022-09-10T08:46:06.358Z,28.66888
2022-09-10T08:51:08.502Z,28.770842
2022-09-10T08:56:10.160Z,28.78718
2022-09-10T09:01:11.803Z,29.214012
2022-09-10T09:06:13.977Z,29.85492
2022-09-10T09:11:15.730Z,29.279988
2022-09-10T09:16:17.504Z,29.464916
2022-09-10T09:21:19.509Z,29.12064
2022-09-10T09:26:21.404Z,29.035016
2022-09-10T09:31:23.599Z,28.815214
2022-09-10T09:36:25.626Z,29.406674
2022-09-10T09:41:27.399Z,29.124386
2022-09-10T09:46:29.585Z,30.219536
2022-09-10T09:51:31.332Z,30.623192
2022-09-10T09:56:33.144Z,30.287276
2022-09-10T10:01:35.027Z,29.445972
2022-09-10T10:06:36.745Z,29.974332
2022-09-10T10:11:38.743Z,30.47356
2022-09-10T10:16:40.192Z,30.952934
2022-09-10T10:21:42.394Z,30.2343
2022-09-10T10:26:44.331Z,30.68146
2022-09-10T10:31:46.319Z,30.374678
2022-09-10T10:36:48.705Z,30.799748
2022-09-10T10:41:50.648Z,32.33104
2022-09-10T10:46:52.541Z,31.39346
2022-09-10T10:51:54.780Z,30.717216
2022-09-10T10:56:56.717Z,31.46763
2022-09-10T11:01:58.755Z,31.503808
2022-09-10T11:07:00.908Z,29.6777
2022-09-10T11:12:02.895Z,31.036808
2022-09-10T11:17:05.140Z,31.148026
2022-09-10T11:22:07.590Z,31.126626
2022-09-10T11:27:09.345Z,31.30428
2022-09-10T11:32:11.119Z,31.794266
2022-09-10T11:37:13.269Z,31.133478
2022-09-10T11:42:15.272Z,31.532072
2022-09-10T11:47:17.504Z,30.80417
2022-09-10T11:52:19.821Z,31.231912
2022-09-10T11:57:21.568Z,30.507538
2022-09-10T12:02:23.421Z,30.6883
2022-09-10T12:07:25.812Z,31.114456
2022-09-10T12:12:27.824Z,30.621646
2022-09-10T12:17:29.865Z,30.854052
2022-09-10T12:22:31.782Z,30.931738
2022-09-10T12:27:33.777Z,31.201884
2022-09-10T12:32:35.278Z,30.905468
2022-09-10T12:37:36.867Z,31.243162
2022-09-10T12:42:38.368Z,31.067258
2022-09-10T12:47:39.837Z,30.384406
2022-09-10T12:52:41.524Z,29.611494
2022-09-10T12:57:43.389Z,30.76931
2022-09-10T13:02:45.159Z,30.564694
2022-09-10T13:07:47.539Z,30.275132
2022-09-10T13:12:49.535Z,30.39742
2022-09-10T13:17:51.502Z,30.51416
2022-09-10T13:22:53.845Z,30.808798
2022-09-10T13:27:55.668Z,30.401166
2022-09-10T13:32:57.284Z,29.775674
2022-09-10T13:37:59.403Z,29.630004
2022-09-10T13:43:02.326Z,30.146912
2022-09-10T13:48:04.524Z,29.679452
2022-09-10T13:53:06.856Z,29.693604
2022-09-10T13:58:08.813Z,29.85074
2022-09-10T14:03:10.921Z,29.715642
2022-09-10T14:08:12.844Z,29.852708
2022-09-10T14:13:14.607Z,29.099254
2022-09-10T14:18:16.422Z,28.786298
2022-09-10T14:23:18.524Z,28.744354
2022-09-10T14:28:20.426Z,28.496722
2022-09-10T14:33:22.364Z,28.504904
2022-09-10T14:38:24.664Z,28.214664
2022-09-10T14:43:26.433Z,28.397624
2022-09-10T14:48:28.500Z,28.204962
2022-09-10T14:53:30.547Z,27.721856
2022-09-10T14:58:32.482Z,27.943204
2022-09-10T15:03:34.336Z,27.705532
2022-09-10T15:08:35.821Z,27.62828
2022-09-10T15:13:37.593Z,27.295458
2022-09-10T15:18:39.363Z,26.977862
2022-09-10T15:23:41.362Z,26.865098
2022-09-10T15:28:43.036Z,26.229918
2022-09-10T15:33:44.533Z,26.479762
2022-09-10T15:38:46.965Z,26.171894
2022-09-10T15:43:48.588Z,25.79162
2022-09-10T15:48:50.459Z,25.089352
2022-09-10T15:53:52.711Z,25.374096
2022-09-10T15:58:54.494Z,25.506956
2022-09-10T16:03:56.283Z,25.147904
2022-09-10T16:08:58.050Z,25.030934
2022-09-10T16:14:04.035Z,24.296222
2022-09-10T16:19:06.157Z,23.872728
2022-09-10T16:24:08.117Z,23.920208
2022-09-10T16:29:09.554Z,23.95576
2022-09-10T16:34:11.516Z,23.475736
2022-09-10T16:39:13.779Z,23.160582
2022-09-10T16:44:15.927Z,23.377994
2022-09-10T16:49:17.957Z,22.806592
2022-09-10T16:54:20.155Z,22.85034
2022-09-10T16:59:22.405Z,22.913018
2022-09-10T17:04:28.528Z,22.51509
2022-09-10T17:09:31.209Z,22.375418
2022-09-10T17:14:32.687Z,22.416466
2022-09-10T17:19:34.375Z,22.232856
2022-09-10T17:24:36.320Z,21.817518
2022-09-10T17:29:38.109Z,21.604584
2022-09-10T17:34:40.250Z,21.503504
2022-09-10T17:39:42.172Z,21.486732
2022-09-10T17:44:43.937Z,21.299146
2022-09-10T17:49:45.886Z,21.16919
2022-09-10T17:54:48.200Z,21.235654
2022-09-10T17:59:50.194Z,20.85097
2022-09-10T18:04:52.103Z,20.48759
2022-09-10T18:09:53.918Z,20.650208
2022-09-10T18:14:55.765Z,20.474984
2022-09-10T18:19:57.337Z,20.135568
2022-09-10T18:24:59.426Z,20.19389
2022-09-10T18:30:01.179Z,19.595404
2022-09-10T18:35:03.359Z,19.699374
2022-09-10T18:40:05.509Z,19.624972
2022-09-10T18:45:07.350Z,19.523458
2022-09-10T18:50:09.177Z,19.572458
2022-09-10T18:55:11.345Z,19.399188
2022-09-10T19:00:13.460Z,19.430778
2022-09-10T19:05:15.364Z,18.867858
2022-09-10T19:10:17.129Z,18.907318
2022-09-10T19:15:19.091Z,18.702526
2022-09-10T19:20:20.860Z,19.002916
2022-09-10T19:25:23.137Z,18.349256
2022-09-10T19:30:25.084Z,18.84958
2022-09-10T19:35:26.863Z,18.436454
2022-09-10T19:40:29.155Z,18.120894
2022-09-10T19:45:30.939Z,17.979838
2022-09-10T19:50:32.840Z,18.5287
2022-09-10T19:55:34.919Z,18.177818
2022-09-10T20:00:46.701Z,17.977884
2022-09-10T20:05:49.087Z,18.07146
2022-09-10T20:10:51.174Z,17.488864
2022-09-10T20:15:53.423Z,17.160494
2022-09-10T20:20:55.500Z,17.639636
2022-09-10T20:25:57.942Z,17.435902
2022-09-10T20:30:59.807Z,17.343032
2022-09-10T20:36:01.701Z,17.766118
2022-09-10T20:41:03.893Z,17.348772
2022-09-10T20:46:05.606Z,16.825244
2022-09-10T20:51:07.669Z,17.465552
2022-09-10T20:56:09.776Z,17.124834
2022-09-10T21:01:11.335Z,17.185028
2022-09-10T21:06:13.194Z,16.980426
2022-09-10T21:11:15.310Z,17.055276
2022-09-10T21:16:16.794Z,17.441982
2022-09-10T21:21:19.916Z,16.891356
2022-09-10T21:26:22.216Z,17.193414
2022-09-10T21:31:23.773Z,16.885182
2022-09-10T21:36:25.613Z,16.571196
2022-09-10T21:41:27.128Z,15.960986
2022-09-10T21:46:29.165Z,15.12703
2022-09-10T21:51:31.059Z,15.743928
2022-09-10T21:56:33.152Z,15.9361
2022-09-10T22:01:34.706Z,15.624068
2022-09-10T22:06:36.382Z,15.674994
2022-09-10T22:11:38.300Z,15.999646
2022-09-10T22:16:40.089Z,15.636158
2022-09-10T22:21:41.932Z,15.398094
2022-09-10T22:26:44.331Z,14.997616
2022-09-10T22:31:46.315Z,14.723986
2022-09-10T22:36:48.282Z,14.707038
2022-09-10T22:41:50.633Z,14.491404
2022-09-10T22:46:52.452Z,14.41593
2022-09-10T22:51:54.182Z,14.77262
2022-09-10T22:56:56.599Z,14.034884
2022-09-10T23:01:58.630Z,14.45345
2022-09-10T23:07:00.435Z,14.4184
2022-09-10T23:12:02.321Z,14.277006
2022-09-10T23:17:04.211Z,13.518074
2022-09-10T23:22:06.299Z,14.365276
2022-09-10T23:27:08.291Z,15.129404
2022-09-10T23:32:10.064Z,15.164712
2022-09-10T23:37:11.871Z,15.310802
2022-09-10T23:42:13.781Z,15.230742
2022-09-10T23:47:15.501Z,14.835026
2022-09-10T23:52:17.482Z,14.67747
2022-09-10T23:57:19.343Z,14.74217
